createdAt,value
2022-12-24T00:01:51.136Z,27.63
2022-12-24T00:04:20.138Z,30.00
2022-12-24T00:06:49.285Z,28.20
2022-12-24T00:09:18.228Z,28.60
2022-12-24T00:11:48.953Z,28.27
2022-12-24T00:14:18.017Z,27.33
2022-12-24T00:16:47.057Z,27.80
2022-12-24T00:19:16.133Z,26.57
2022-12-24T00:21:45.089Z,26.67
2022-12-24T00:24:14.069Z,26.10
2022-12-24T00:26:43.036Z,26.53
2022-12-24T00:29:14.063Z,26.13
2022-12-24T00:31:43.160Z,26.40
2022-12-24T00:34:12.427Z,26.57
2022-12-24T00:36:41.453Z,28.00
2022-12-24T00:39:10.511Z,32.63
2022-12-24T00:41:39.492Z,35.97
2022-12-24T00:44:10.355Z,32.30
2022-12-24T00:46:42.620Z,35.07
2022-12-24T00:49:14.020Z,34.67
2022-12-24T00:51:43.164Z,37.37
2022-12-24T00:54:12.217Z,37.63
2022-12-24T00:56:41.169Z,38.03
2022-12-24T00:59:10.152Z,41.17
2022-12-24T01:01:40.821Z,39.20
2022-12-24T01:04:27.092Z,38.43
2022-12-24T01:06:56.276Z,41.80
2022-12-24T01:09:25.194Z,39.37
2022-12-24T01:11:54.217Z,38.23
2022-12-24T01:14:23.271Z,36.90
2022-12-24T01:16:53.983Z,33.57
2022-12-24T01:19:23.087Z,28.97
2022-12-24T01:21:53.067Z,29.23
2022-12-24T01:24:21.803Z,28.80
2022-12-24T01:26:50.795Z,29.97
2022-12-24T01:29:19.849Z,30.33
2022-12-24T01:31:48.880Z,31.27
2022-12-24T01:34:19.573Z,30.20
2022-12-24T01:36:48.681Z,29.53
2022-12-24T01:39:17.683Z,29.50
2022-12-24T01:42:03.815Z,30.10
2022-12-24T01:44:37.083Z,31.03
2022-12-24T01:47:12.914Z,31.53
2022-12-24T01:49:45.945Z,31.90
2022-12-24T01:52:18.129Z,32.17
2022-12-24T01:54:51.102Z,31.57
2022-12-24T01:57:24.120Z,29.17
2022-12-24T01:59:58.281Z,28.97
2022-12-24T02:02:28.534Z,29.47
2022-12-24T02:05:03.942Z,30.97
2022-12-24T02:07:33.283Z,28.80
2022-12-24T02:10:03.536Z,29.63
2022-12-24T02:12:35.968Z,29.13
2022-12-24T02:15:06.235Z,29.50
2022-12-24T02:17:45.817Z,29.47
2022-12-24T02:21:05.493Z,29.60
2022-12-24T02:24:10.121Z,27.17
2022-12-24T02:27:15.467Z,27.07
2022-12-24T02:30:00.935Z,26.07
2022-12-24T02:32:38.004Z,25.20
2022-12-24T02:35:13.552Z,25.30
2022-12-24T02:37:48.840Z,23.97
2022-12-24T02:40:20.546Z,25.60
2022-12-24T02:42:52.488Z,25.37
2022-12-24T02:45:27.816Z,26.80
2022-12-24T02:47:57.877Z,25.67
2022-12-24T02:50:27.870Z,26.67
2022-12-24T02:52:56.940Z,27.23
2022-12-24T02:55:41.014Z,27.00
2022-12-24T02:58:26.589Z,26.23
2022-12-24T03:01:16.426Z,25.30
2022-12-24T03:04:01.475Z,25.77
2022-12-24T03:06:39.523Z,26.53
2022-12-24T03:09:14.841Z,27.80
2022-12-24T03:11:50.040Z,28.63
2022-12-24T03:14:19.818Z,27.67
2022-12-24T03:16:51.480Z,28.63
2022-12-24T03:19:22.740Z,26.97
2022-12-24T03:21:52.909Z,28.53
2022-12-24T03:24:21.957Z,28.10
2022-12-24T03:26:51.994Z,29.63
2022-12-24T03:29:21.757Z,30.00
2022-12-24T03:31:54.932Z,27.67
2022-12-24T03:34:23.707Z,29.00
2022-12-24T03:36:53.071Z,30.17
2022-12-24T03:39:22.245Z,32.70
2022-12-24T03:41:51.349Z,33.13
2022-12-24T03:44:20.507Z,33.90
2022-12-24T03:46:49.514Z,33.17
2022-12-24T03:49:20.040Z,34.60
2022-12-24T03:51:49.124Z,33.77
2022-12-24T03:54:18.109Z,33.43
2022-12-24T03:56:46.984Z,33.07
2022-12-24T03:59:16.072Z,33.27
2022-12-24T04:01:45.100Z,31.67
2022-12-24T04:04:14.248Z,31.70
2022-12-24T04:06:44.661Z,31.70
2022-12-24T04:09:13.732Z,30.57
2022-12-24T04:11:42.732Z,30.30
2022-12-24T04:14:11.886Z,30.77
2022-12-24T04:16:40.891Z,29.27
2022-12-24T04:19:09.997Z,29.07
2022-12-24T04:21:38.707Z,27.83
2022-12-24T04:24:09.980Z,28.17
2022-12-24T04:26:39.096Z,26.80
2022-12-24T04:29:07.931Z,27.73
2022-12-24T04:31:36.998Z,27.10
2022-12-24T04:34:06.289Z,26.17
2022-12-24T04:36:35.548Z,24.97
2022-12-24T04:39:04.917Z,26.87
2022-12-24T04:41:35.661Z,24.83
2022-12-24T04:44:04.757Z,25.80
2022-12-24T04:46:33.766Z,22.93
2022-12-24T04:49:02.942Z,25.53
2022-12-24T04:51:31.960Z,23.97
2022-12-24T04:54:01.142Z,23.13
2022-12-24T04:56:32.832Z,23.43
2022-12-24T04:59:03.692Z,22.20
2022-12-24T05:01:34.447Z,21.97
2022-12-24T05:04:03.601Z,21.40
2022-12-24T05:06:34.613Z,22.53
2022-12-24T05:09:03.770Z,23.40
2022-12-24T05:11:33.093Z,21.37
2022-12-24T05:14:03.818Z,23.60
2022-12-24T05:16:32.905Z,22.90
2022-12-24T05:19:02.089Z,24.27
2022-12-24T05:21:31.291Z,22.70
2022-12-24T05:24:17.295Z,24.03
2022-12-24T05:26:49.681Z,24.53
2022-12-24T05:29:20.952Z,24.80
2022-12-24T05:31:50.429Z,24.50
2022-12-24T05:34:19.469Z,24.63
2022-12-24T05:36:48.377Z,24.73
2022-12-24T05:39:19.021Z,26.20
2022-12-24T05:41:48.527Z,25.47
2022-12-24T05:44:17.914Z,27.00
2022-12-24T05:46:49.057Z,28.00
2022-12-24T05:49:17.996Z,30.33
2022-12-24T05:51:47.016Z,28.73
2022-12-24T05:54:16.182Z,26.90
2022-12-24T05:57:25.004Z,27.73
2022-12-24T05:59:54.071Z,25.20
2022-12-24T06:02:24.548Z,25.10
2022-12-24T06:04:53.720Z,24.50
2022-12-24T06:07:22.874Z,23.27
2022-12-24T06:13:13.920Z,22.23
2022-12-24T06:20:00.759Z,20.87
2022-12-24T06:22:29.776Z,20.30
2022-12-24T06:24:58.643Z,20.20
2022-12-24T06:27:27.507Z,20.50
2022-12-24T06:29:56.263Z,20.40
2022-12-24T06:32:24.944Z,18.83
2022-12-24T06:34:54.007Z,19.30
2022-12-24T06:37:24.865Z,19.43
2022-12-24T06:39:53.805Z,21.03
2022-12-24T06:42:24.400Z,20.63
2022-12-24T06:44:53.350Z,20.10
2022-12-24T06:47:22.688Z,20.90
2022-12-24T06:49:51.395Z,20.90
2022-12-24T06:52:20.504Z,21.47
2022-12-24T06:54:51.023Z,20.80
2022-12-24T06:57:20.061Z,21.27
2022-12-24T06:59:49.035Z,20.63
2022-12-24T07:02:18.319Z,22.33
2022-12-24T07:04:47.366Z,21.73
2022-12-24T07:07:16.423Z,21.60
2022-12-24T07:09:45.337Z,21.47
2022-12-24T07:12:16.072Z,21.37
2022-12-24T07:14:44.859Z,22.13
2022-12-24T07:17:13.896Z,20.60
2022-12-24T07:19:42.957Z,21.20
2022-12-24T07:22:15.607Z,21.20
2022-12-24T07:24:44.888Z,21.07
2022-12-24T07:27:16.005Z,22.00
2022-12-24T07:29:45.146Z,19.53
2022-12-24T07:32:14.108Z,20.77
2022-12-24T07:34:43.335Z,20.73
2022-12-24T07:37:12.349Z,20.80
2022-12-24T07:39:41.130Z,20.03
2022-12-24T07:42:10.036Z,20.17
2022-12-24T07:44:40.470Z,20.63
2022-12-24T07:47:09.346Z,19.93
2022-12-24T07:49:38.146Z,20.00
2022-12-24T07:52:06.940Z,20.07
2022-12-24T07:54:35.719Z,20.67
2022-12-24T07:57:04.728Z,21.20
2022-12-24T07:59:33.770Z,22.70
2022-12-24T08:02:04.487Z,21.30
2022-12-24T08:04:36.327Z,21.80
2022-12-24T08:07:05.500Z,21.30
2022-12-24T08:09:35.329Z,22.93
2022-12-24T08:12:05.282Z,22.13
2022-12-24T08:14:34.411Z,22.70
2022-12-24T08:17:04.479Z,23.03
2022-12-24T08:19:33.187Z,23.53
2022-12-24T08:22:02.034Z,23.03
2022-12-24T08:24:30.734Z,23.17
2022-12-24T08:26:59.409Z,23.40
2022-12-24T08:29:28.544Z,23.77
2022-12-24T08:31:57.560Z,23.43
2022-12-24T08:34:28.632Z,22.77
2022-12-24T08:36:57.380Z,23.17
2022-12-24T08:39:26.303Z,22.03
2022-12-24T08:41:55.064Z,22.70
2022-12-24T08:44:24.236Z,24.73
2022-12-24T08:46:53.107Z,24.43
2022-12-24T08:49:22.229Z,25.10
2022-12-24T08:51:52.922Z,25.00
2022-12-24T08:54:22.613Z,22.73
2022-12-24T08:56:51.303Z,23.40
2022-12-24T08:59:20.728Z,24.33
2022-12-24T09:01:49.770Z,23.50
2022-12-24T09:04:18.559Z,23.73
2022-12-24T09:06:47.319Z,22.23
2022-12-24T09:09:17.373Z,23.57
2022-12-24T09:11:46.406Z,22.90
2022-12-24T09:14:15.172Z,24.87
2022-12-24T09:16:44.046Z,23.40
2022-12-24T09:19:12.770Z,22.43
2022-12-24T09:21:41.673Z,24.13
2022-12-24T09:24:10.793Z,23.50
2022-12-24T09:26:42.840Z,24.00
2022-12-24T09:29:13.020Z,25.00
2022-12-24T09:31:42.028Z,25.03
2022-12-24T09:34:11.272Z,23.73
2022-12-24T09:36:40.296Z,23.40
2022-12-24T09:39:09.255Z,25.40
2022-12-24T09:41:53.928Z,25.10
2022-12-24T09:44:36.313Z,26.37
2022-12-24T09:47:13.002Z,26.93
2022-12-24T09:49:45.295Z,25.10
2022-12-24T09:52:22.163Z,26.60
2022-12-24T09:54:57.753Z,26.30
2022-12-24T09:57:33.138Z,24.63
2022-12-24T10:00:03.068Z,26.33
2022-12-24T10:02:38.787Z,23.27
2022-12-24T10:05:14.968Z,25.33
2022-12-24T10:07:53.013Z,24.50
2022-12-24T10:10:28.270Z,25.27
2022-12-24T10:13:06.016Z,24.20
2022-12-24T10:15:41.134Z,23.60
2022-12-24T10:18:27.484Z,24.07
2022-12-24T10:21:03.979Z,22.80
2022-12-24T10:23:38.412Z,24.60
2022-12-24T10:26:15.768Z,24.23
2022-12-24T10:28:52.308Z,24.57
2022-12-24T10:31:26.663Z,23.43
2022-12-24T10:33:59.449Z,24.80
2022-12-24T10:36:31.377Z,24.23
2022-12-24T10:39:01.608Z,23.10
2022-12-24T10:41:31.811Z,23.30
2022-12-24T10:44:02.425Z,22.80
2022-12-24T10:46:37.467Z,23.60
2022-12-24T10:49:07.667Z,23.57
2022-12-24T10:51:43.224Z,23.07
2022-12-24T10:54:19.510Z,21.73
2022-12-24T10:56:53.053Z,23.30
2022-12-24T10:59:28.959Z,21.80
2022-12-24T11:01:59.239Z,23.63
2022-12-24T11:04:30.837Z,22.77
2022-12-24T11:07:02.549Z,23.13
2022-12-24T11:09:33.764Z,23.33
2022-12-24T11:12:08.974Z,22.80
2022-12-24T11:14:41.872Z,21.63
2022-12-24T11:17:22.203Z,21.53
2022-12-24T11:19:52.199Z,21.70
2022-12-24T11:22:25.764Z,22.57
2022-12-24T11:25:03.334Z,22.80
2022-12-24T11:27:39.961Z,23.40
2022-12-24T11:30:31.120Z,23.90
2022-12-24T11:33:20.779Z,23.67
2022-12-24T11:35:53.572Z,22.60
2022-12-24T11:38:25.188Z,22.37
2022-12-24T11:41:02.014Z,22.80
2022-12-24T11:43:45.631Z,23.70
2022-12-24T11:46:38.693Z,23.57
2022-12-24T11:49:17.372Z,23.33
2022-12-24T11:52:15.445Z,23.40
2022-12-24T11:54:54.149Z,22.53
2022-12-24T11:57:29.114Z,22.37
2022-12-24T11:59:57.892Z,24.37
2022-12-24T12:02:30.279Z,23.53
2022-12-24T12:05:00.863Z,23.07
2022-12-24T12:07:32.568Z,22.13
2022-12-24T12:10:05.410Z,20.33
2022-12-24T12:12:40.120Z,21.30
2022-12-24T12:15:16.063Z,21.03
2022-12-24T12:17:51.334Z,22.70
2022-12-24T12:20:24.720Z,23.73
2022-12-24T12:22:59.953Z,23.20
2022-12-24T12:25:35.204Z,22.50
2022-12-24T12:28:07.680Z,21.80
2022-12-24T12:30:38.743Z,21.90
2022-12-24T12:33:20.604Z,22.67
2022-12-24T12:35:51.752Z,23.43
2022-12-24T12:38:24.530Z,23.73
2022-12-24T12:41:05.311Z,23.20
2022-12-24T12:43:58.038Z,23.83
2022-12-24T12:46:38.308Z,25.23
2022-12-24T12:49:18.644Z,24.30
2022-12-24T12:51:53.876Z,26.03
2022-12-24T12:54:36.731Z,25.90
2022-12-24T12:57:09.209Z,25.70
2022-12-24T12:59:42.775Z,24.63
2022-12-24T13:02:27.879Z,24.87
2022-12-24T13:05:26.789Z,25.27
2022-12-24T13:08:28.744Z,24.17
2022-12-24T13:11:26.173Z,23.60
2022-12-24T13:14:18.901Z,23.87
2022-12-24T13:17:10.524Z,24.90
2022-12-24T13:20:03.835Z,23.23
2022-12-24T13:22:32.969Z,24.33
2022-12-24T13:25:01.814Z,24.50
2022-12-24T13:27:34.341Z,25.43
2022-12-24T13:30:09.996Z,25.00
2022-12-24T13:32:42.029Z,27.27
2022-12-24T13:35:38.009Z,28.97
2022-12-24T13:38:43.954Z,29.03
2022-12-24T13:41:55.715Z,27.50
2022-12-24T13:44:36.578Z,26.17
2022-12-24T13:47:32.299Z,26.50
2022-12-24T13:50:22.670Z,25.00
2022-12-24T13:52:54.232Z,24.43
2022-12-24T13:55:23.693Z,25.13
2022-12-24T13:57:58.574Z,26.17
2022-12-24T14:00:33.852Z,26.20
2022-12-24T14:03:08.086Z,26.13
2022-12-24T14:05:41.008Z,27.57
2022-12-24T14:08:12.686Z,28.80
2022-12-24T14:10:45.037Z,27.87
2022-12-24T14:13:47.268Z,28.20
2022-12-24T14:16:20.985Z,27.97
2022-12-24T14:18:59.219Z,27.77
2022-12-24T14:21:33.293Z,29.97
2022-12-24T14:24:07.027Z,31.13
2022-12-24T14:26:45.760Z,31.47
2022-12-24T14:29:24.953Z,31.67
2022-12-24T14:31:57.768Z,33.13
2022-12-24T14:34:27.615Z,33.87
2022-12-24T14:36:58.077Z,35.67
2022-12-24T14:39:32.499Z,34.10
2022-12-24T14:42:15.119Z,32.87
2022-12-24T14:44:53.061Z,33.10
2022-12-24T14:47:31.264Z,32.50
2022-12-24T14:50:27.419Z,33.37
2022-12-24T14:53:11.906Z,33.93
2022-12-24T14:55:46.052Z,33.50
2022-12-24T14:58:23.218Z,34.97
2022-12-24T15:00:53.919Z,36.33
2022-12-24T15:03:26.982Z,35.73
2022-12-24T15:05:58.891Z,37.10
2022-12-24T15:08:33.937Z,38.83
2022-12-24T15:11:06.381Z,38.27
2022-12-24T15:13:38.584Z,39.97
2022-12-24T15:16:11.376Z,40.20
2022-12-24T15:18:48.094Z,40.97
2022-12-24T15:21:21.193Z,39.77
2022-12-24T15:23:52.150Z,39.93
2022-12-24T15:26:25.396Z,41.43
2022-12-24T15:29:02.258Z,41.93
2022-12-24T15:31:32.748Z,44.07
2022-12-24T15:34:03.391Z,48.63
2022-12-24T15:36:34.712Z,42.50
2022-12-24T15:39:06.049Z,43.10
2022-12-24T15:42:00.557Z,46.40
2022-12-24T15:44:31.141Z,46.53
2022-12-24T15:47:01.692Z,46.33
2022-12-24T15:49:34.622Z,51.70
2022-12-24T15:52:07.050Z,46.57
2022-12-24T15:54:36.271Z,44.40
2022-12-24T15:57:15.951Z,44.00
2022-12-24T15:59:44.931Z,45.37
2022-12-24T16:02:36.639Z,42.37
2022-12-24T16:05:33.769Z,41.87
2022-12-24T16:08:10.455Z,42.00
2022-12-24T16:10:42.248Z,42.30
2022-12-24T16:13:20.375Z,41.77
2022-12-24T16:15:54.668Z,40.43
2022-12-24T16:18:29.215Z,42.27
2022-12-24T16:21:00.296Z,42.20
2022-12-24T16:23:35.616Z,42.50
2022-12-24T16:26:04.908Z,41.10
2022-12-24T16:28:34.077Z,41.73
2022-12-24T16:31:03.451Z,41.30
2022-12-24T16:33:32.680Z,40.83
2022-12-24T16:36:03.484Z,40.63
2022-12-24T16:38:52.360Z,40.77
2022-12-24T16:41:21.323Z,37.33
2022-12-24T16:43:51.679Z,37.87
2022-12-24T16:46:20.873Z,39.23
2022-12-24T16:48:50.886Z,37.60
2022-12-24T16:51:21.570Z,38.37
2022-12-24T16:53:50.840Z,38.37
2022-12-24T16:56:20.572Z,38.73
2022-12-24T16:58:49.304Z,40.43
2022-12-24T17:01:18.382Z,39.87
2022-12-24T17:03:47.451Z,39.37
2022-12-24T17:06:16.494Z,38.93
2022-12-24T17:08:47.152Z,38.77
2022-12-24T17:11:16.330Z,40.30
2022-12-24T17:13:45.418Z,42.43
2022-12-24T17:16:14.470Z,39.57
2022-12-24T17:18:43.690Z,40.90
2022-12-24T17:21:13.863Z,39.90
2022-12-24T17:23:42.994Z,43.03
2022-12-24T17:26:15.375Z,44.20
2022-12-24T17:28:44.832Z,42.20
2022-12-24T17:31:16.544Z,43.63
2022-12-24T17:33:45.988Z,42.00
2022-12-24T17:36:15.029Z,42.87
2022-12-24T17:38:44.174Z,41.00
2022-12-24T17:41:16.750Z,41.07
2022-12-24T17:43:45.917Z,43.10
2022-12-24T17:46:16.959Z,43.03
2022-12-24T17:48:46.451Z,41.20
2022-12-24T17:51:17.174Z,41.90
2022-12-24T17:53:46.320Z,44.63
2022-12-24T17:56:17.115Z,43.23
2022-12-24T17:58:47.135Z,44.43
2022-12-24T18:01:18.133Z,47.60
2022-12-24T18:03:48.586Z,44.27
2022-12-24T18:06:19.129Z,45.40
2022-12-24T18:08:48.913Z,44.93
2022-12-24T18:11:22.330Z,43.80
2022-12-24T18:13:51.980Z,43.60
2022-12-24T18:16:22.821Z,46.77
2022-12-24T18:18:52.713Z,46.87
2022-12-24T18:21:24.001Z,46.73
2022-12-24T18:23:55.167Z,47.07
2022-12-24T18:26:27.732Z,46.83
2022-12-24T18:29:01.446Z,46.63
2022-12-24T18:31:30.628Z,46.03
2022-12-24T18:33:59.981Z,47.23
2022-12-24T18:36:29.192Z,49.33
2022-12-24T18:38:58.844Z,53.60
2022-12-24T18:41:31.242Z,54.13
2022-12-24T18:44:00.917Z,52.60
2022-12-24T18:46:31.651Z,51.57
2022-12-24T18:49:02.193Z,46.67
2022-12-24T18:51:35.436Z,47.80
2022-12-24T18:54:05.358Z,47.63
2022-12-24T18:56:36.447Z,45.97
2022-12-24T18:59:05.392Z,47.97
2022-12-24T19:01:36.296Z,45.37
2022-12-24T19:04:05.740Z,44.93
2022-12-24T19:06:34.600Z,47.53
2022-12-24T19:09:03.984Z,47.07
2022-12-24T19:11:34.314Z,46.43
2022-12-24T19:14:07.265Z,45.63
2022-12-24T19:16:38.209Z,44.87
2022-12-24T19:19:08.736Z,45.97
2022-12-24T19:21:38.202Z,53.67
2022-12-24T19:24:10.495Z,55.17
2022-12-24T19:26:39.616Z,48.00
2022-12-24T19:29:10.265Z,47.63
2022-12-24T19:31:39.538Z,49.87
2022-12-24T19:34:08.478Z,51.97
2022-12-24T19:36:37.556Z,52.63
2022-12-24T19:39:06.481Z,53.53
2022-12-24T19:41:35.623Z,48.67
2022-12-24T19:44:04.848Z,49.53
2022-12-24T19:46:38.042Z,49.10
2022-12-24T19:49:08.442Z,47.90
2022-12-24T19:51:37.466Z,47.53
2022-12-24T19:54:13.323Z,49.10
2022-12-24T19:56:45.658Z,48.50
2022-12-24T19:59:14.540Z,46.87
2022-12-24T20:01:47.262Z,55.53
2022-12-24T20:04:18.860Z,53.73
2022-12-24T20:06:48.056Z,58.40
2022-12-24T20:09:17.187Z,51.77
2022-12-24T20:11:46.304Z,53.03
2022-12-24T20:14:15.313Z,69.77
2022-12-24T20:16:46.105Z,112.23
2022-12-24T20:19:16.057Z,77.77
2022-12-24T20:21:46.030Z,68.10
2022-12-24T20:24:15.085Z,63.50
2022-12-24T20:26:44.152Z,68.87
2022-12-24T20:29:13.503Z,73.57
2022-12-24T20:31:43.246Z,73.63
2022-12-24T20:34:13.604Z,76.80
2022-12-24T20:36:42.645Z,76.43
2022-12-24T20:39:13.104Z,92.83
2022-12-24T20:41:42.189Z,76.10
2022-12-24T20:44:12.083Z,82.80
2022-12-24T20:46:40.762Z,60.47
2022-12-24T20:49:12.415Z,58.50
2022-12-24T20:51:41.141Z,62.03
2022-12-24T20:54:12.025Z,89.03
2022-12-24T20:56:40.973Z,93.17
2022-12-24T20:59:09.659Z,99.23
2022-12-24T21:01:39.078Z,76.70
2022-12-24T21:04:10.529Z,91.40
2022-12-24T21:06:40.962Z,88.97
2022-12-24T21:09:09.833Z,79.93
2022-12-24T21:11:56.227Z,73.73
2022-12-24T21:14:27.579Z,86.43
2022-12-24T21:16:57.252Z,79.53
2022-12-24T21:19:26.916Z,113.23
2022-12-24T21:21:57.578Z,116.43
2022-12-24T21:24:26.622Z,96.90
2022-12-24T21:26:55.781Z,85.20
2022-12-24T21:29:24.770Z,95.13
2022-12-24T21:31:53.884Z,82.67
2022-12-24T21:34:23.181Z,83.30
2022-12-24T21:36:51.920Z,74.47
2022-12-24T21:39:22.272Z,76.70
2022-12-24T21:41:51.170Z,75.53
2022-12-24T21:44:20.252Z,79.10
2022-12-24T21:46:49.079Z,66.00
2022-12-24T21:49:31.692Z,68.27
2022-12-24T21:52:01.838Z,63.00
2022-12-24T21:54:33.219Z,63.43
2022-12-24T21:57:21.463Z,65.17
2022-12-24T21:59:52.119Z,68.20
2022-12-24T22:02:23.251Z,68.13
2022-12-24T22:04:52.085Z,60.93
2022-12-24T22:07:40.207Z,72.93
2022-12-24T22:10:29.474Z,68.10
2022-12-24T22:13:00.574Z,70.73
2022-12-24T22:15:30.494Z,61.80
2022-12-24T22:17:59.593Z,70.97
2022-12-24T22:20:28.665Z,69.87
2022-12-24T22:22:57.742Z,67.37
2022-12-24T22:25:30.288Z,69.30
2022-12-24T22:28:00.828Z,74.07
2022-12-24T22:30:29.984Z,80.07
2022-12-24T22:32:59.146Z,74.03
2022-12-24T22:35:28.144Z,73.13
2022-12-24T22:38:00.199Z,61.67
2022-12-24T22:40:31.746Z,55.90
2022-12-24T22:43:00.841Z,55.73
2022-12-24T22:45:29.844Z,54.00
2022-12-24T22:47:59.353Z,56.63
2022-12-24T22:50:28.478Z,59.73
2022-12-24T22:52:57.464Z,55.63
2022-12-24T22:55:26.574Z,56.43
2022-12-24T22:57:56.665Z,53.40
2022-12-24T23:00:42.169Z,57.30
2022-12-24T23:03:13.680Z,57.40
2022-12-24T23:05:42.886Z,54.33
2022-12-24T23:08:12.933Z,57.70
2022-12-24T23:10:41.940Z,55.23
2022-12-24T23:13:31.869Z,54.37
2022-12-24T23:16:03.840Z,57.80
2022-12-24T23:18:34.495Z,51.47
2022-12-24T23:21:07.141Z,51.60
2022-12-24T23:23:37.335Z,54.57
2022-12-24T23:26:08.754Z,51.47
2022-12-24T23:28:39.790Z,52.70
2022-12-24T23:31:09.608Z,53.67
2022-12-24T23:33:38.859Z,50.77
2022-12-24T23:36:08.869Z,49.20
2022-12-24T23:38:38.000Z,44.73
2022-12-24T23:41:09.463Z,46.87
2022-12-24T23:43:40.182Z,47.10
2022-12-24T23:46:09.323Z,43.57
2022-12-24T23:48:38.253Z,49.73
2022-12-24T23:51:08.852Z,52.33
2022-12-24T23:53:37.994Z,52.80
2022-12-24T23:56:07.777Z,46.13
2022-12-24T23:58:36.904Z,51.47
